Historyczne dane pomiarowe

Dodano dane terminowe – wersja testowa.

Dane z okresu 1951-2019

Wersja bazy: 1.34 [2019-03-16, lista zmian], aktualizacja planowana na 2019-04-15

Dane meteo z obszaru Polski uzyskane na podstawie danych udostępnionych przez Instytut Meteorologii i Gospodarki Wodnej – Państwowy Instytut Badawczy.

 

Wybierz Datę:    

       

TemperaturaWilgotnośćWiatrCiśnienieOpadyŚniegCzas trwania zjawisk
 Stacja t tx tn tng RH VA  wxwx mslp ppp RRR   cm mm wxwxwxwxwxwxwx
2019-03-31 7.7 15.5 -0.7 -2.5 54.9 5.5 1.9 1.9 0.0 0.0- 920.6 0.0 0.0 0.0- 0.0 11.7 1.0---- 5.0-
2019-03-30 6.4 16.3 -2.2 -4.1 56.6 5.1 3.6 1.3 0.0 0.0- 924.9 0.0 0.0 0.0- 0.0 11.8----- 6.0-
2019-03-29 3.8 11.0 -1.9 -3.2 72.1 5.6 4.8 1.1 0.0 0.0- 930.5 0.0 0.0 0.0- 0.0 10.2----- 9.0-
2019-03-28 2.4 5.1 -2.5 -3.3 73.1 5.3 6.5 1.5 0.0 0.0- 929.1 0.0 0.0 0.0- 0.0 0.2 1.1---- 4.0-
2019-03-27 0.3 4.7 -3.7 -7.0 58.5 3.5 3.3 1.8 0.0 0.0- 925.7 0.0 0.0 0.0 3 0.0 11.6- 3.0--- 2.0-
2019-03-26 0.0 3.0 -1.5 -1.5 77.9 4.7 7.3 2.4 0.0 0.0- 919.1 1.7 0.8 0.9 4 0.0 1.6- 13.9-----
2019-03-25 2.6 6.3 -0.4 0.1 79.8 5.8 7.9 2.0 0.0 0.0- 913.2 5.1 2.0 3.1- 0.0 1.7 1.2 8.4-----
2019-03-24 7.2 11.9 4.1 2.5 80.8 8.2 5.6 1.5 0.0 0.0- 922.0 0.0 0.0 0.0- 0.0 4.1-------
2019-03-23 7.4 15.3 0.0 0.4 71.1 6.9 3.4 1.5 0.0 0.0- 927.2 0.0 0.0 0.0- 0.0 10.9--- 1.9---
2019-03-22 6.6 12.0 0.7 -0.3 76.8 7.4 6.5 1.3 0.0 0.0- 931.3 0.0 0.0 0.0- 0.0 5.5-------
2019-03-21 3.2 10.2 -4.0 -4.9 59.6 4.6 5.4 1.6 0.0 0.0- 932.4 0.0 0.0 0.0- 0.0 10.6----- 7.0-
2019-03-20 -0.6 4.4 -5.0 -5.4 67.1 3.8 1.9 1.0 0.0 0.0- 930.2 0.0 0.0 0.0- 0.0 10.4----- 11.0-
2019-03-19 0.1 2.9 -2.9 -3.4 71.6 4.4 5.4 1.1 0.0 0.0- 922.9 0.0 0.0 0.0- 0.0 1.0----- 10.0-
2019-03-18 2.8 13.0 0.7 0.6 84.4 6.2 7.1 1.6 0.0 0.0- 913.8 1.7 1.7 0.0- 0.0 0.0 3.9 4.1 2.9-- 1.0-
2019-03-17 10.2 17.6 0.4 -0.6 49.6 5.1 5.5 3.1 0.0 0.0- 909.3 1.8 0.0 1.8- 0.0 10.8-------
2019-03-16 2.7 7.0 0.2 -0.6 76.0 5.7 7.4 3.3 0.0 0.0- 907.4 0.1 0.0 0.1 2 0.0 0.0 5.8 1.2 0.1----
2019-03-15 2.9 4.4 -0.3 -1.6 69.5 5.2 7.0 3.3 0.0 0.0- 903.8 6.5 0.2 6.3 3 0.0 1.6 2.2 7.6-----
2019-03-14 0.9 3.9 -2.5 -6.1 71.9 4.6 6.8 2.1 0.0 0.0- 907.0 0.0 0.0 0.0 4 0.0 2.3- 5.6-----
2019-03-13 -1.3 4.0 -8.1-11.0 73.9 4.2 5.9 1.5 0.0 0.0- 911.3 0.0 0.0 0.0 5 1.2 0.5-------
2019-03-12 -2.6 -0.2 -3.5 -6.5 77.0 3.9 5.1 2.4 0.0 0.0- 917.3 0.4 0.4 0.0 7 1.0 3.2- 6.2-----
2019-03-11 0.6 6.5 -2.6 -2.7 70.4 4.4 6.9 4.6 0.0 0.0- 910.0 5.5 2.2 3.3 2 0.0 4.5 0.4 12.5 0.4----
2019-03-10 4.2 8.2 0.8 0.0 68.1 5.7 6.4 3.6 0.0 0.0- 907.9 8.0 0.3 7.7- 0.0 3.7 6.1------
2019-03-09 4.4 7.4 -0.6 -1.9 60.3 5.0 6.5 3.6 0.0 0.0- 914.7 0.9 0.0 0.9- 0.0 5.6 5.4------
2019-03-08 6.9 11.8 3.7 1.7 54.3 5.3 4.9 3.0 0.0 0.0- 913.5 0.0 0.0 0.0- 0.0 5.8-------
2019-03-07 9.0 12.9 2.0 -1.7 51.4 5.9 5.3 3.6 0.0 0.0- 907.8 0.1 0.0 0.1 9 3.9 6.0 2.2------
2019-03-06 2.5 7.3 -0.9 -1.8 66.4 4.6 5.5 1.8 0.0 0.0- 914.8 0.0 0.0 0.0 12 4.1 8.9- 2.4-----
2019-03-05 2.6 9.1 -0.1 -1.6 67.4 4.9 5.4 4.0 0.0 0.0- 906.5 5.0 0.0 5.0 8 4.8 6.6 0.9 6.5-----
2019-03-04 7.7 14.4 1.5 -0.3 57.5 5.8 6.4 3.6 0.0 0.0- 904.6 2.0 0.0 2.0 9 4.8 6.2 2.5------
2019-03-03 3.0 5.9 -1.4 -1.9 66.9 5.1 7.4 2.0 0.0 0.0- 913.5 0.0 0.0 0.0 10 3.9 1.1-------
2019-03-02 -1.8 1.5 -5.5 -7.7 73.8 3.9 5.3 1.8 0.0 0.0- 913.9 0.0 0.0 0.0 10 4.1 5.7- 3.9-----
2019-03-01 2.5 6.3 1.0 0.4 81.3 6.0 8.0 2.5 0.0 0.0- 909.3 2.5 1.4 1.1 9 4.1 0.0 3.9 3.8 1.1----
2019-02-28 5.8 10.4 1.4 -2.0 48.0 4.4 3.9 3.3 0.0 0.0- 911.5 0.0 0.0 0.0 15 4.1 9.6-------
2019-02-27 2.0 6.6 -0.5 -1.9 62.1 4.3 5.8 1.9 0.0 0.0- 924.1 0.0 0.0 0.0 15 4.1 7.1-------
2019-02-26 2.6 4.9 -1.1 -3.5 72.6 5.4 6.9 2.1 0.0 0.0- 926.0 0.5 0.5 0.0 16 4.3 1.4 0.8 0.8 0.7----
2019-02-25 2.8 7.6 -0.7 -2.5 57.1 4.1 7.0 1.8 0.0 0.0- 932.0 0.0 0.0 0.0 17 4.2 8.9-------
2019-02-24 -2.9 0.4 -9.4-11.6 61.1 3.0 7.6 0.9 0.0 0.0- 934.1 0.0 0.0 0.0 17 4.1 0.0-------
2019-02-23 -9.3 -5.4-13.6-17.1 67.5 2.0 5.1 1.4 0.0 0.0- 936.6 0.0 0.0 0.0 18 4.3 8.2----- 9.0-
2019-02-22 -3.9 2.3 -8.9-12.0 81.5 4.1 6.8 1.9 0.0 0.0- 925.5 2.6 2.6 0.0 17 4.4 1.3 2.2 3.9 3.5----
2019-02-21 2.3 5.5 0.8 -0.2 70.8 5.1 7.6 2.1 0.0 0.0- 922.9 10.0 0.1 9.9 18 4.1 3.0- 3.7 4.9----
2019-02-20 2.2 5.3 0.1 -2.5 70.1 5.0 7.4 2.3 0.0 0.0- 920.3 0.0 0.0 0.0 18 4.2 0.1 2.6 3.0-----
2019-02-19 2.7 10.7 -4.0 -8.2 55.3 3.9 2.0 1.5 0.0 0.0- 918.3 0.6 0.0 0.6 20 4.1 9.2 1.3---- 7.0-
2019-02-18 2.9 13.7 -2.7 -6.4 54.5 3.8 3.6 1.1 0.0 0.0- 923.1 0.0 0.0 0.0 20 4.0 9.2----- 6.0-
2019-02-17 4.5 14.5 -1.6 -4.3 47.9 3.7 0.8 1.3 0.0 0.0- 926.1 0.0 0.0 0.0 20 4.1 9.1----- 8.0-
2019-02-16 3.2 13.2 -2.6 -4.6 72.5 5.4 0.5 1.6 0.0 0.0- 928.8 0.0 0.0 0.0 22 3.6 9.0----- 8.0-
2019-02-15 1.5 5.2 0.2 -1.2 82.3 5.6 6.6 1.0 0.0 0.0- 931.1 0.0 0.0 0.0 25 3.4 7.1- 0.2--- 2.0-
2019-02-14 1.8 4.1 0.5 -0.4 79.4 5.5 7.1 1.5 0.0 0.0- 931.7 0.0 0.0 0.0 27 3.4 1.8- 0.8-----
2019-02-13 -1.6 1.4 -6.3-12.2 80.8 4.5 7.5 2.3 0.0 0.0- 928.8 0.5 0.4 0.1 32 2.8 0.0- 8.3-----
2019-02-12 -3.6 0.3 -4.6 -5.0 83.6 3.9 7.9 2.6 0.0 0.0- 918.6 3.6 3.3 0.3 23 3.5 0.0- 22.6-----
2019-02-11 0.8 5.6 -0.5 -0.5 81.8 5.3 7.8 2.8 0.0 0.0- 905.6 3.3 0.8 2.5 17 3.6 0.4 1.2 12.4 0.9----
2019-02-10 2.5 7.6 -3.6 -7.7 70.0 5.0 5.4 2.9 0.0 0.0- 910.9 1.7 0.0 1.7 19 3.8 8.1 2.0------
2019-02-09 -1.4 6.5 -7.0-11.0 80.9 4.4 3.9 1.3 0.0 0.0- 915.7 0.0 0.0 0.0 20 3.7 4.3----- 9.0-
2019-02-08 -2.7 2.6 -9.1-13.9 84.1 4.3 4.0 1.0 0.0 0.0- 918.6 0.1 0.1 0.0 20 3.8 0.8- 1.0- 0.7- 6.9-
2019-02-07 -3.8 4.9 -8.8-13.3 68.6 3.0 1.8 1.0 0.0 0.0- 918.9 0.0 0.0 0.0 21 3.8 8.4----- 12.0-
2019-02-06 -5.7 -0.6 -9.0-13.4 83.5 3.3 2.6 1.0 0.0 0.0- 925.7 0.0 0.0 0.0 21 3.8 5.6----- 12.0-
2019-02-05 -3.0 1.9 -6.0 -7.9 89.0 4.4 4.5 1.1 0.0 0.0- 925.5 0.0 0.0 0.0 22 3.7 6.4----- 7.0-
2019-02-04 -2.3 3.6 -3.5 -3.5 91.3 4.7 7.8 2.0 0.0 0.0- 922.8 0.0 0.0 0.0 22 3.6 0.0 5.7 4.3- 1.9---
2019-02-03 4.7 9.5 1.8 0.7 83.4 7.0 7.6 1.6 0.0 0.0- 907.7 5.2 0.2 5.0 26 3.0 3.0 7.6 1.7-----
2019-02-02 7.9 9.5 5.5 4.2 69.9 7.4 7.3 6.1 0.0 0.0- 903.1 0.7 0.4 0.3 38 2.7 0.3 11.0------
2019-02-01 0.7 6.1 -9.5-15.2 68.1 4.5 5.8 3.3 0.0 0.0- 902.6 0.3 0.0 0.3 49 2.4 6.8 7.7 3.1-----
2019-01-31 -4.8 -0.7 -7.4-13.2 77.3 3.3 4.9 1.1 0.0 0.0- 902.8 0.0 0.0 0.0 51 2.4 6.4----- 8.0-
106.5 ms

 

Źródłem pochodzenia danych jest Instytut Meteorologii i Gospodarki Wodnej – Państwowy Instytut Badawczy. Dane Instytutu Meteorologii i Gospodarki Wodnej – Państwowego Instytutu Badawczego zostały przetworzone.

Dane źródłowe można odnaleźć na stronie https://dane.imgw.pl